Time;durP1;ratioP1;P1;durP2;ratioP2;P2;SDS_P1;SDS_P2;PMS_P1;PMS_P2;Temp;Humidity;BMP_temperature;BMP_pressure;BME280_temperature;BME280_humidity;BME280_pressure;Samples;Min_cycle;Max_cycle;Signal;HPM_P1;HPM_P2
2023/04/04 00:01:28;;;;;;;3.58;2.20;;;8.00;97.10;;;;;;4937175;29;20468;-94
2023/04/04 00:03:53;;;;;;;4.40;2.60;;;8.00;97.20;;;;;;4939217;29;20047;-94
2023/04/04 00:06:43;;;;;;;2.50;2.30;;;9.50;97.60;;;;;;4955755;28;20075;-95
2023/04/04 00:09:09;;;;;;;5.82;2.72;;;8.10;97.30;;;;;;4952112;29;20024;-95
2023/04/04 00:11:35;;;;;;;6.32;2.55;;;8.10;97.30;;;;;;4944289;29;20031;-95
2023/04/04 00:14:01;;;;;;;5.80;2.38;;;8.50;97.50;;;;;;4948040;29;20032;-96
2023/04/04 00:16:27;;;;;;;4.75;2.67;;;8.30;97.40;;;;;;4947652;29;20040;-95
2023/04/04 00:18:58;;;;;;;3.17;2.10;;;8.60;97.60;;;;;;4946100;29;20027;-95
2023/04/04 00:21:29;;;;;;;4.43;2.53;;;7.70;97.30;;;;;;4943628;29;20035;-95
2023/04/04 00:23:56;;;;;;;6.50;2.40;;;7.90;97.40;;;;;;4940988;29;20054;-93
2023/04/04 00:26:22;;;;;;;14.02;2.20;;;7.90;97.50;;;;;;4940143;29;20028;-95
2023/04/04 00:29:07;;;;;;;6.50;2.10;;;7.80;97.60;;;;;;4940581;29;20024;-93
2023/04/04 00:31:34;;;;;;;4.93;2.17;;;9.20;98.00;;;;;;4941387;29;20491;-94
2023/04/04 00:34:00;;;;;;;4.35;2.10;;;7.20;97.60;;;;;;4946681;29;20075;-95
2023/04/04 00:36:29;;;;;;;3.63;2.00;;;9.00;98.20;;;;;;4943312;29;20028;-95
2023/04/04 00:39:01;;;;;;;4.30;2.20;;;7.50;97.80;;;;;;4944262;29;20035;-96
2023/04/04 00:41:48;;;;;;;4.93;2.30;;;7.70;97.90;;;;;;4946899;29;20023;-94
2023/04/04 00:44:34;;;;;;;4.40;2.40;;;7.80;97.90;;;;;;4949601;29;20070;-94
2023/04/04 00:47:22;;;;;;;4.93;2.90;;;7.60;97.80;;;;;;4932384;29;20035;-94
2023/04/04 00:49:53;;;;;;;4.38;2.40;;;7.00;97.60;;;;;;4959320;28;20051;-95
2023/04/04 00:52:19;;;;;;;3.38;2.20;;;7.80;97.80;;;;;;4951951;29;20039;-95
2023/04/04 00:54:55;;;;;;;6.88;2.58;;;7.70;97.70;;;;;;4953137;29;20031;-95
2023/04/04 00:58:10;;;;;;;8.25;2.45;;;8.10;97.70;;;;;;4955414;29;20496;-94
2023/04/04 01:01:30;;;;;;;5.43;2.17;;;7.60;97.50;;;;;;4957401;28;20012;-95
2023/04/04 01:03:58;;;;;;;4.93;2.10;;;7.60;97.50;;;;;;4958286;28;20048;-95
2023/04/04 01:06:25;;;;;;;5.55;2.13;;;7.90;97.80;;;;;;4953058;29;20047;-94
2023/04/04 01:09:12;;;;;;;4.43;2.03;;;7.70;97.70;;;;;;4956346;29;20024;-95
2023/04/04 01:11:47;;;;;;;3.15;2.47;;;8.40;97.80;;;;;;4957268;29;20019;-95
2023/04/04 01:14:15;;;;;;;2.90;2.03;;;7.40;97.60;;;;;;4959934;28;20016;-94
2023/04/04 01:16:50;;;;;;;14.20;2.50;;;8.00;97.70;;;;;;4988480;23;20069;-96
2023/04/04 01:19:42;;;;;;;4.05;2.30;;;8.10;97.80;;;;;;4957514;28;20058;-95
2023/04/04 01:22:53;;;;;;;5.65;2.50;;;8.10;97.80;;;;;;4957862;29;20004;-93
2023/04/04 01:25:36;;;;;;;4.80;3.03;;;7.70;97.70;;;;;;4956094;28;20056;-96
2023/04/04 01:28:02;;;;;;;4.32;2.45;;;8.30;98.20;;;;;;4960068;28;20039;-95
2023/04/04 01:33:36;;;;;;;12.25;2.50;;;7.70;97.80;;;;;;5043113;23;20067;-96
2023/04/04 01:36:37;;;;;;;4.90;2.85;;;7.60;97.80;;;;;;4894458;29;20032;-95
2023/04/04 01:39:03;;;;;;;4.18;2.40;;;7.60;97.90;;;;;;4896390;29;20482;-94
2023/04/04 01:41:46;;;;;;;7.20;2.67;;;7.60;98.10;;;;;;4917521;29;20028;-94
2023/04/04 01:44:14;;;;;;;7.00;3.38;;;8.10;98.10;;;;;;4920283;29;20032;-94
2023/04/04 01:46:40;;;;;;;3.08;2.50;;;7.80;98.40;;;;;;4921907;29;20032;-96
2023/04/04 01:49:21;;;;;;;3.25;2.10;;;8.80;98.50;;;;;;4924583;29;20496;-95
2023/04/04 01:52:02;;;;;;;3.90;2.80;;;7.40;98.20;;;;;;4922793;29;20048;-96
2023/04/04 01:54:46;;;;;;;4.57;2.67;;;7.40;98.40;;;;;;4925031;29;20432;-93
2023/04/04 01:57:12;;;;;;;4.95;2.85;;;7.30;98.40;;;;;;4911002;29;20028;-94
2023/04/04 01:59:37;;;;;;;3.38;1.92;;;7.60;98.40;;;;;;4911225;29;20028;-94
2023/04/04 02:02:06;;;;;;;3.50;2.50;;;7.30;98.40;;;;;;4916373;29;20064;-95
2023/04/04 02:04:51;;;;;;;4.93;3.22;;;7.30;98.40;;;;;;4922118;29;20020;-95
2023/04/04 02:07:37;;;;;;;4.80;2.60;;;6.90;98.30;;;;;;4913240;29;20052;-95
2023/04/04 02:10:31;;;;;;;5.05;2.85;;;7.20;98.40;;;;;;4922309;29;20072;-96
2023/04/04 02:13:18;;;;;;;5.18;2.17;;;7.30;98.30;;;;;;4924332;29;20096;-95
2023/04/04 02:15:53;;;;;;;6.72;2.72;;;7.80;98.40;;;;;;4918059;29;20033;-95
2023/04/04 02:18:35;;;;;;;3.00;2.45;;;7.90;98.70;;;;;;4918802;29;20066;-94
2023/04/04 02:21:21;;;;;;;4.32;2.42;;;7.20;98.50;;;;;;4911178;29;20021;-93
2023/04/04 02:23:58;;;;;;;7.10;2.67;;;7.80;98.80;;;;;;4912707;29;20076;-92
2023/04/04 02:26:29;;;;;;;4.40;2.40;;;7.10;98.60;;;;;;4920704;29;20033;-96
2023/04/04 02:29:17;;;;;;;3.50;2.30;;;7.10;98.70;;;;;;4921664;29;20043;-94
2023/04/04 02:32:06;;;;;;;3.95;2.72;;;7.10;98.60;;;;;;4909642;29;20122;-95
2023/04/04 02:34:32;;;;;;;5.80;2.97;;;7.70;98.70;;;;;;4916430;29;20096;-94
2023/04/04 02:37:11;;;;;;;3.97;2.70;;;7.20;98.60;;;;;;4915668;29;20036;-96
2023/04/04 02:39:55;;;;;;;7.28;3.03;;;7.80;98.70;;;;;;4913943;29;20025;-94
2023/04/04 02:42:43;;;;;;;7.63;3.10;;;7.10;98.50;;;;;;4912790;29;20037;-95
2023/04/04 02:45:10;;;;;;;5.60;2.85;;;7.20;98.30;;;;;;4903750;29;20040;-94
2023/04/04 02:47:36;;;;;;;4.13;2.65;;;7.20;98.30;;;;;;4903848;29;20096;-94
2023/04/04 02:50:22;;;;;;;3.53;2.50;;;7.10;98.40;;;;;;4902641;29;20039;-94
2023/04/04 02:53:10;;;;;;;4.38;2.72;;;7.70;98.60;;;;;;4902800;29;20112;-95
2023/04/04 02:55:53;;;;;;;11.60;3.42;;;7.10;98.30;;;;;;4902228;29;20107;-96
2023/04/04 02:58:37;;;;;;;2.60;2.40;;;7.90;98.70;;;;;;4901731;29;20048;-94
2023/04/04 03:01:18;;;;;;;5.40;3.15;;;7.10;98.70;;;;;;4904068;29;20027;-94
2023/04/04 03:03:45;;;;;;;9.30;4.60;;;6.60;98.70;;;;;;4904933;29;20028;-94
2023/04/04 03:06:31;;;;;;;5.30;3.10;;;7.10;98.80;;;;;;4903498;29;20033;-94
2023/04/04 03:09:06;;;;;;;5.50;3.03;;;6.70;98.70;;;;;;4902806;29;20041;-94
2023/04/04 03:11:52;;;;;;;8.50;3.28;;;7.10;99.00;;;;;;4917906;29;20021;-94
2023/04/04 03:14:35;;;;;;;5.53;3.05;;;7.40;99.10;;;;;;4914840;29;20416;-95
2023/04/04 03:17:04;;;;;;;3.72;2.90;;;6.40;98.70;;;;;;4907931;29;20107;-95
2023/04/04 03:19:30;;;;;;;4.50;2.88;;;7.60;99.30;;;;;;4904923;29;20443;-93
2023/04/04 03:22:11;;;;;;;8.52;3.20;;;7.90;99.40;;;;;;4902524;29;20466;-95
2023/04/04 03:24:39;;;;;;;6.90;2.88;;;7.10;99.40;;;;;;4902150;29;20036;-93
2023/04/04 03:27:24;;;;;;;5.25;2.72;;;6.00;99.10;;;;;;4901853;29;20549;-95
2023/04/04 03:30:02;;;;;;;6.20;3.47;;;7.20;99.60;;;;;;4901368;29;20020;-94
2023/04/04 03:32:38;;;;;;;5.75;2.92;;;7.50;99.60;;;;;;4911153;29;20132;-94
2023/04/04 03:35:12;;;;;;;7.40;3.25;;;7.50;99.70;;;;;;4916865;29;20052;-94
2023/04/04 03:38:31;;;;;;;7.70;3.08;;;7.50;99.70;;;;;;4901301;29;20033;-93
2023/04/04 03:41:21;;;;;;;10.07;3.42;;;6.70;99.50;;;;;;4862394;29;20117;-94
2023/04/04 03:44:03;;;;;;;4.35;2.63;;;6.70;99.50;;;;;;4863159;29;20065;-96
2023/04/04 03:46:34;;;;;;;5.78;3.13;;;6.70;99.50;;;;;;4896917;29;20556;-95
2023/04/04 03:49:09;;;;;;;5.97;3.33;;;7.60;99.80;;;;;;4903529;29;20104;-94
2023/04/04 03:51:43;;;;;;;3.70;2.88;;;6.80;99.70;;;;;;4901983;29;20489;-95
2023/04/04 03:54:09;;;;;;;6.82;3.00;;;7.40;99.80;;;;;;4903883;29;20036;-95
2023/04/04 03:56:36;;;;;;;5.47;3.03;;;6.70;99.70;;;;;;4906466;29;20476;-94
2023/04/04 03:59:02;;;;;;;7.75;3.30;;;7.30;99.90;;;;;;4912525;29;20650;-96
2023/04/04 04:01:37;;;;;;;5.80;3.00;;;8.00;99.90;;;;;;4980799;23;20054;-95
2023/04/04 04:04:02;;;;;;;4.07;2.72;;;7.40;99.80;;;;;;4950369;29;20047;-95
2023/04/04 04:06:28;;;;;;;6.68;3.30;;;7.00;99.60;;;;;;4937790;29;20032;-95
2023/04/04 04:08:57;;;;;;;4.28;3.30;;;6.80;99.40;;;;;;4937678;29;20395;-95
2023/04/04 04:11:37;;;;;;;3.83;3.42;;;6.80;99.60;;;;;;4940031;29;20027;-93
2023/04/04 04:14:26;;;;;;;5.40;3.00;;;6.70;99.40;;;;;;4939927;29;20024;-94
2023/04/04 04:17:10;;;;;;;3.95;3.05;;;6.60;99.20;;;;;;4944551;29;20027;-94
2023/04/04 04:19:36;;;;;;;4.30;3.05;;;6.70;99.40;;;;;;4941378;29;20046;-94
2023/04/04 04:22:03;;;;;;;3.97;3.08;;;7.90;99.50;;;;;;4939976;29;20024;-94
2023/04/04 04:24:32;;;;;;;7.28;3.63;;;6.60;99.30;;;;;;4939864;29;20036;-95
2023/04/04 04:27:06;;;;;;;4.63;3.53;;;7.40;99.40;;;;;;4939227;29;20027;-95
2023/04/04 04:29:41;;;;;;;9.43;3.13;;;6.80;99.50;;;;;;4938307;29;20028;-95
2023/04/04 04:32:14;;;;;;;6.75;3.58;;;7.20;99.90;;;;;;4938612;29;20111;-94
2023/04/04 04:34:45;;;;;;;8.55;3.90;;;6.80;99.30;;;;;;4938590;29;20040;-94
2023/04/04 04:37:24;;;;;;;4.00;3.28;;;6.60;99.40;;;;;;5004807;23;20059;-94
2023/04/04 04:39:51;;;;;;;8.70;3.40;;;7.00;99.50;;;;;;4937874;29;20042;-94
2023/04/04 04:42:24;;;;;;;7.43;3.13;;;7.00;99.50;;;;;;4937652;29;20032;-94
2023/04/04 04:45:06;;;;;;;4.10;3.03;;;6.90;99.50;;;;;;4936822;29;20050;-92
2023/04/04 04:47:40;;;;;;;7.03;3.33;;;6.50;99.20;;;;;;4936132;29;20024;-94
2023/04/04 04:50:07;;;;;;;4.32;3.20;;;6.60;99.30;;;;;;4941390;29;20087;-94
2023/04/04 04:52:38;;;;;;;6.22;3.30;;;6.40;99.40;;;;;;4943074;29;20027;-93
2023/04/04 04:55:10;;;;;;;4.00;2.67;;;6.80;99.60;;;;;;4953721;28;20051;-93
2023/04/04 04:57:37;;;;;;;5.85;3.60;;;6.40;99.40;;;;;;4947837;29;20043;-94
2023/04/04 05:00:03;;;;;;;5.25;3.17;;;6.20;99.40;;;;;;4937458;29;20024;-94
2023/04/04 05:02:44;;;;;;;6.55;3.42;;;5.10;99.30;;;;;;4938076;29;20059;-95
2023/04/04 05:05:10;;;;;;;7.50;3.60;;;6.40;99.50;;;;;;4937037;29;20559;-95
2023/04/04 05:07:51;;;;;;;5.20;3.72;;;7.00;99.80;;;;;;4940540;29;20027;-94
2023/04/04 05:10:17;;;;;;;5.40;3.58;;;6.30;99.70;;;;;;4957364;28;20147;-94
2023/04/04 05:12:58;;;;;;;3.40;3.10;;;7.00;99.90;;;;;;4948833;29;20028;-95
2023/04/04 05:18:28;;;;;;;5.00;3.33;;;7.20;99.90;;;;;;4934404;29;20038;-93
2023/04/04 05:20:54;;;;;;;9.23;3.33;;;6.30;99.80;;;;;;4938196;29;20046;-96
2023/04/04 05:23:34;;;;;;;6.72;3.58;;;7.20;99.90;;;;;;4940667;29;20460;-95
2023/04/04 05:26:16;;;;;;;6.35;3.47;;;7.10;99.90;;;;;;4939377;29;20040;-95
2023/04/04 05:29:01;;;;;;;6.03;4.00;;;5.90;99.70;;;;;;4939693;29;20034;-94
2023/04/04 05:31:46;;;;;;;9.70;3.42;;;7.20;99.90;;;;;;4939747;29;20070;-94
2023/04/04 05:34:36;;;;;;;11.90;3.63;;;6.90;99.90;;;;;;4945136;29;20034;-96
2023/04/04 05:37:26;;;;;;;54.47;7.13;;;6.20;99.90;;;;;;4905447;29;20464;-95
2023/04/04 05:40:10;;;;;;;84.20;12.52;;;6.20;99.90;;;;;;4925406;29;20039;-95
2023/04/04 05:42:36;;;;;;;41.55;7.50;;;5.90;99.90;;;;;;4942742;29;20043;-94
2023/04/04 05:45:04;;;;;;;13.85;5.35;;;6.80;99.90;;;;;;4946909;29;20090;-94
2023/04/04 05:47:54;;;;;;;4.18;3.53;;;5.70;99.90;;;;;;4944159;29;20136;-95
2023/04/04 05:50:35;;;;;;;5.28;3.78;;;6.20;99.90;;;;;;4942611;29;20058;-94
2023/04/04 05:53:26;;;;;;;6.90;3.80;;;6.30;99.90;;;;;;4944464;29;20036;-94
2023/04/04 05:56:07;;;;;;;6.15;3.88;;;5.70;99.90;;;;;;4876574;29;20138;-94
2023/04/04 05:58:55;;;;;;;;;;;7.10;99.90;;;;;;4954039;29;20088;-95
2023/04/04 06:01:20;;;;;;;5.65;3.60;;;6.30;99.90;;;;;;4935526;29;19907;-95
2023/04/04 06:04:21;;;;;;;5.43;4.05;;;6.50;99.90;;;;;;4945690;29;20031;-95
2023/04/04 06:06:47;;;;;;;3.95;3.47;;;6.50;99.90;;;;;;4938781;29;20027;-95
2023/04/04 06:09:35;;;;;;;7.25;4.38;;;6.90;99.90;;;;;;4941890;29;20044;-95
2023/04/04 06:12:03;;;;;;;6.53;3.95;;;6.30;99.90;;;;;;4939263;29;20024;-93
2023/04/04 06:14:44;;;;;;;12.80;4.38;;;7.30;99.90;;;;;;4939023;29;20031;-94
2023/04/04 06:17:10;;;;;;;8.38;3.72;;;6.70;99.90;;;;;;4952762;28;20039;-96
2023/04/04 06:19:35;;;;;;;9.43;4.25;;;7.10;99.90;;;;;;4956992;28;20058;-93
2023/04/04 06:22:05;;;;;;;6.22;3.92;;;7.10;99.90;;;;;;4940060;29;20432;-96
2023/04/04 06:24:52;;;;;;;6.73;3.90;;;7.00;99.90;;;;;;4947645;23;20152;-95
2023/04/04 06:27:38;;;;;;;13.27;4.20;;;6.10;99.90;;;;;;4940590;29;20336;-94
2023/04/04 06:30:19;;;;;;;7.03;4.22;;;7.30;99.90;;;;;;4939279;29;20027;-94
2023/04/04 06:33:03;;;;;;;8.00;4.28;;;6.00;99.90;;;;;;4940098;29;20036;-95
2023/04/04 06:35:29;;;;;;;4.70;3.88;;;6.60;99.90;;;;;;4939430;29;20024;-94
2023/04/04 06:37:59;;;;;;;6.75;3.95;;;7.70;99.90;;;;;;4940157;29;20035;-95
2023/04/04 06:40:25;;;;;;;12.57;3.83;;;7.10;99.90;;;;;;4940075;29;20024;-94
2023/04/04 06:43:09;;;;;;;6.80;4.07;;;6.60;99.90;;;;;;4939855;29;20035;-94
2023/04/04 06:45:58;;;;;;;6.25;4.10;;;6.60;99.90;;;;;;4940330;29;20039;-94
2023/04/04 06:48:43;;;;;;;4.88;3.40;;;6.70;99.90;;;;;;4939330;29;20020;-94
2023/04/04 06:51:24;;;;;;;8.73;3.70;;;7.10;99.90;;;;;;4938562;29;20122;-95
2023/04/04 06:53:50;;;;;;;5.75;3.75;;;7.90;99.90;;;;;;4938836;29;20028;-94
2023/04/04 06:56:16;;;;;;;11.30;4.63;;;7.30;99.90;;;;;;4937702;29;20036;-94
2023/04/04 06:58:42;;;;;;;7.70;5.00;;;6.80;99.90;;;;;;4938316;29;20167;-93
2023/04/04 07:01:13;;;;;;;11.32;4.40;;;6.80;99.90;;;;;;4938310;29;20109;-94
2023/04/04 07:03:51;;;;;;;7.97;4.18;;;7.20;99.90;;;;;;4938867;29;20019;-94
2023/04/04 07:06:18;;;;;;;9.82;4.20;;;7.60;99.90;;;;;;4960373;28;20032;-94
2023/04/04 07:09:03;;;;;;;4.85;3.22;;;7.30;99.90;;;;;;4947994;29;20023;-93
2023/04/04 07:11:41;;;;;;;9.30;3.95;;;6.90;99.90;;;;;;4938210;29;20048;-94
2023/04/04 07:14:09;;;;;;;6.82;3.92;;;7.70;99.90;;;;;;4937837;29;20086;-93
2023/04/04 07:16:57;;;;;;;11.75;3.47;;;7.00;99.90;;;;;;4936939;29;20032;-93
2023/04/04 07:19:41;;;;;;;7.45;3.88;;;7.90;99.90;;;;;;4935182;29;20020;-92
2023/04/04 07:22:21;;;;;;;7.60;4.07;;;7.60;99.90;;;;;;4959725;23;20018;-94
2023/04/04 07:25:37;;;;;;;5.13;3.63;;;7.10;99.90;;;;;;4949457;23;20047;-94
2023/04/04 07:28:09;;;;;;;5.95;4.00;;;7.20;99.90;;;;;;4938494;29;20086;-93
2023/04/04 07:33:16;;;;;;;6.32;3.58;;;7.20;99.90;;;;;;4959696;23;20087;-89
2023/04/04 07:35:45;;;;;;;6.57;4.20;;;7.50;99.90;;;;;;4938160;29;20031;-90
2023/04/04 07:38:26;;;;;;;4.65;3.35;;;7.80;99.90;;;;;;4940743;29;20428;-91
2023/04/04 07:40:55;;;;;;;8.68;4.40;;;8.20;99.90;;;;;;4939023;29;20506;-93
2023/04/04 07:43:20;;;;;;;6.07;4.30;;;7.30;99.90;;;;;;4945531;29;20043;-92
2023/04/04 07:49:14;;;;;;;8.15;4.38;;;7.50;99.90;;;;;;4979505;28;20061;-95
2023/04/04 08:18:46;;;;;;;6.57;2.88;;;7.90;98.20;;;;;;4945996;23;20509;-88
2023/04/04 08:34:07;;;;;;;;;;;;;;;;;;;;;
2023/04/04 08:36:33;;;;;;;7.10;3.75;;;8.10;95.50;;;;;;4837830;29;20520;-89
2023/04/04 08:40:25;;;;;;;5.75;3.47;;;9.50;95.30;;;;;;4844051;29;20034;-88
2023/04/04 08:46:37;;;;;;;5.68;3.47;;;8.10;94.30;;;;;;4962667;23;20052;-94
2023/04/04 08:49:47;;;;;;;7.68;3.63;;;8.10;94.40;;;;;;4942752;29;20111;-96
2023/04/04 08:52:15;;;;;;;7.15;3.90;;;8.10;94.90;;;;;;4965283;23;20070;-95
2023/04/04 08:55:18;;;;;;;9.48;3.20;;;8.10;95.20;;;;;;4969901;23;20059;-95
2023/04/04 08:58:44;;;;;;;;;;;;;;;;;;;;;
2023/04/04 09:01:16;;;;;;;4.70;2.50;;;7.60;93.80;;;;;;4914500;28;20032;-93
2023/04/04 09:24:47;;;;;;;6.65;2.67;;;7.80;94.20;;;;;;4861158;29;20052;-94
2023/04/04 09:48:03;;;;;;;10.30;2.22;;;8.30;94.10;;;;;;4941781;29;19925;-93
2023/04/04 09:54:52;;;;;;;3.63;2.35;;;8.40;93.80;;;;;;4842666;29;20509;-92
2023/04/04 10:01:19;;;;;;;5.35;2.75;;;8.60;94.00;;;;;;4818686;29;20030;-93
2023/04/04 10:14:57;;;;;;;;;;;;;;;;;;;;;
2023/04/04 10:25:44;;;;;;;7.90;2.60;;;8.90;93.70;;;;;;4920050;29;20056;-93
2023/04/04 10:28:22;;;;;;;4.97;2.97;;;7.60;93.10;;;;;;4902757;29;20523;-94
2023/04/04 10:40:32;;;;;;;4.32;2.35;;;8.90;92.90;;;;;;4899428;29;20482;-91
2023/04/04 10:43:23;;;;;;;4.70;2.60;;;10.00;93.40;;;;;;4937605;29;20024;-92
2023/04/04 10:46:08;;;;;;;6.25;2.65;;;9.00;93.30;;;;;;4938335;29;20047;-90
2023/04/04 10:48:48;;;;;;;8.18;2.97;;;9.50;93.70;;;;;;4936912;29;20038;-91
2023/04/04 10:51:22;;;;;;;7.13;2.53;;;9.20;93.30;;;;;;4938683;29;20038;-91
2023/04/04 10:54:00;;;;;;;8.68;2.67;;;8.90;93.10;;;;;;4956930;28;20016;-91
2023/04/04 10:56:31;;;;;;;8.38;3.40;;;9.60;93.40;;;;;;4949557;28;20035;-90
2023/04/04 10:59:14;;;;;;;3.20;2.35;;;9.60;93.60;;;;;;4938402;29;20024;-91
2023/04/04 11:01:47;;;;;;;6.50;2.80;;;9.60;93.10;;;;;;4946794;23;20031;-90
2023/04/04 11:04:21;;;;;;;4.70;2.58;;;9.00;92.90;;;;;;4954221;29;20043;-89
2023/04/04 11:07:05;;;;;;;5.28;2.85;;;9.00;93.00;;;;;;4951861;28;20054;-91
2023/04/04 11:10:00;;;;;;;3.53;3.05;;;9.00;92.90;;;;;;4955750;29;20373;-90
2023/04/04 11:12:33;;;;;;;6.05;2.55;;;9.10;92.90;;;;;;4959671;28;20019;-92
2023/04/04 11:18:12;;;;;;;7.32;3.25;;;9.10;93.50;;;;;;5126252;23;20060;-93
2023/04/04 11:21:52;;;;;;;6.15;3.30;;;8.90;93.40;;;;;;4930259;29;20051;-93
2023/04/04 11:28:32;;;;;;;;;;;;;;;;;;;;;
2023/04/04 11:36:56;;;;;;;6.90;3.57;;;9.40;93.70;;;;;;4936133;29;20107;-92
2023/04/04 11:40:15;;;;;;;7.72;3.00;;;9.50;93.40;;;;;;4931555;29;20284;-91
2023/04/04 11:46:46;;;;;;;6.28;3.17;;;9.60;92.70;;;;;;4936434;29;20558;-91
2023/04/04 11:53:21;;;;;;;5.00;3.00;;;10.50;93.10;;;;;;4937939;29;20110;-93
2023/04/04 11:56:06;;;;;;;3.60;2.90;;;10.90;93.30;;;;;;4911074;29;20055;-91
2023/04/04 12:08:17;;;;;;;4.68;2.60;;;9.40;92.20;;;;;;4888728;29;20087;-91
2023/04/04 12:11:03;;;;;;;4.88;2.75;;;10.50;92.40;;;;;;4892736;29;20382;-90
2023/04/04 12:13:51;;;;;;;6.97;3.50;;;10.60;92.60;;;;;;4922854;29;20111;-92
2023/04/04 12:16:32;;;;;;;5.45;3.90;;;9.90;93.20;;;;;;4944831;29;20027;-92
2023/04/04 12:19:21;;;;;;;5.97;4.22;;;10.60;93.50;;;;;;4955247;28;20108;-88
2023/04/04 12:21:48;;;;;;;5.88;3.53;;;10.10;93.30;;;;;;4939857;29;20031;-90
2023/04/04 12:24:21;;;;;;;9.07;3.55;;;10.10;93.20;;;;;;4936242;29;20110;-89
2023/04/04 12:30:03;;;;;;;5.32;3.17;;;10.10;93.20;;;;;;4936251;29;20030;-95
2023/04/04 12:33:12;;;;;;;7.18;3.00;;;10.20;92.90;;;;;;4931657;29;20507;-89
2023/04/04 12:35:56;;;;;;;5.80;3.70;;;10.20;93.00;;;;;;4943774;29;20051;-94
2023/04/04 12:39:10;;;;;;;7.90;4.30;;;10.90;93.50;;;;;;4941313;28;20211;-92
2023/04/04 12:41:54;;;;;;;14.02;4.47;;;10.40;92.80;;;;;;4915633;29;20040;-92
2023/04/04 12:44:42;;;;;;;5.47;3.72;;;11.10;92.50;;;;;;4915478;29;20028;-91
2023/04/04 12:47:24;;;;;;;5.63;3.70;;;10.50;92.20;;;;;;4925645;29;20016;-90
2023/04/04 12:49:59;;;;;;;6.50;3.45;;;11.10;92.50;;;;;;4926928;29;20036;-91
2023/04/04 12:52:38;;;;;;;7.03;4.00;;;11.70;92.50;;;;;;4917484;29;20024;-92
2023/04/04 12:55:30;;;;;;;6.03;3.83;;;11.00;91.80;;;;;;4916952;29;20495;-92
2023/04/04 12:58:02;;;;;;;5.47;3.60;;;10.40;91.80;;;;;;4917288;29;20099;-92
2023/04/04 13:00:40;;;;;;;5.72;3.60;;;11.90;92.10;;;;;;4917596;29;20024;-91
2023/04/04 13:03:23;;;;;;;5.72;3.30;;;11.50;92.40;;;;;;4917350;29;20055;-91
2023/04/04 13:05:49;;;;;;;6.72;3.67;;;10.90;92.00;;;;;;4916716;29;20040;-91
2023/04/04 13:08:18;;;;;;;4.43;3.33;;;10.50;91.90;;;;;;4916357;29;20028;-91
2023/04/04 13:11:03;;;;;;;5.95;3.88;;;11.30;92.00;;;;;;4916355;29;20051;-92
2023/04/04 13:13:42;;;;;;;5.15;3.85;;;11.30;92.10;;;;;;4917294;29;20036;-91
2023/04/04 13:16:13;;;;;;;7.05;3.38;;;11.30;92.40;;;;;;4917056;29;20032;-92
2023/04/04 13:18:51;;;;;;;6.15;3.83;;;11.50;92.40;;;;;;4917563;29;20032;-92
2023/04/04 13:21:38;;;;;;;4.80;3.72;;;11.20;92.00;;;;;;4917250;29;20036;-91
2023/04/04 13:24:23;;;;;;;8.70;3.22;;;10.90;91.50;;;;;;4937150;23;20212;-92
2023/04/04 13:27:07;;;;;;;4.32;3.05;;;11.00;91.20;;;;;;4936245;29;20487;-92
2023/04/04 13:29:54;;;;;;;4.65;3.10;;;11.10;90.90;;;;;;4935949;29;20112;-92
2023/04/04 13:32:29;;;;;;;6.82;3.47;;;11.80;92.00;;;;;;4936144;29;20160;-92
2023/04/04 13:35:07;;;;;;;8.25;3.60;;;11.80;92.10;;;;;;4936163;29;20028;-91
2023/04/04 13:37:32;;;;;;;5.75;3.75;;;11.20;91.50;;;;;;4942752;28;20020;-92
2023/04/04 13:39:58;;;;;;;5.50;3.72;;;11.50;91.40;;;;;;4920970;29;20071;-92
2023/04/04 13:42:30;;;;;;;6.32;3.80;;;11.90;91.70;;;;;;4943242;29;20020;-91
2023/04/04 13:45:08;;;;;;;4.53;4.13;;;11.70;91.20;;;;;;4939143;29;20028;-92
2023/04/04 13:47:44;;;;;;;6.65;3.95;;;11.30;91.30;;;;;;4940322;29;20114;-92
2023/04/04 13:50:29;;;;;;;4.03;3.63;;;12.40;90.90;;;;;;4939480;29;20136;-92
2023/04/04 13:52:55;;;;;;;4.68;3.70;;;11.70;91.10;;;;;;4938663;29;20059;-92
2023/04/04 13:55:21;;;;;;;4.80;3.85;;;11.00;91.60;;;;;;4939144;29;20063;-91
2023/04/04 13:58:05;;;;;;;5.40;3.92;;;11.00;91.60;;;;;;4939025;29;20450;-89
2023/04/04 14:00:47;;;;;;;3.90;3.47;;;11.90;91.70;;;;;;4939872;29;20028;-92
2023/04/04 14:03:29;;;;;;;6.53;4.03;;;11.80;91.70;;;;;;4939046;29;20032;-92
2023/04/04 14:06:04;;;;;;;5.95;4.05;;;11.40;91.60;;;;;;4938808;29;20051;-92
2023/04/04 14:08:50;;;;;;;5.35;3.92;;;11.50;91.00;;;;;;4952279;29;20020;-92
2023/04/04 14:11:37;;;;;;;6.60;3.90;;;12.70;91.50;;;;;;4940609;29;20106;-92
2023/04/04 14:14:22;;;;;;;10.70;4.90;;;11.60;91.10;;;;;;4940403;29;20043;-93
2023/04/04 14:16:47;;;;;;;7.38;4.32;;;12.20;90.90;;;;;;4942496;29;20036;-94
2023/04/04 14:19:25;;;;;;;5.90;3.90;;;11.80;90.50;;;;;;4940522;29;20034;-91
2023/04/04 14:22:24;;;;;;;10.13;4.85;;;12.00;91.00;;;;;;4940176;29;20031;-92
2023/04/04 14:25:03;;;;;;;6.80;3.90;;;11.60;90.60;;;;;;4937359;29;20044;-92
2023/04/04 14:27:29;;;;;;;6.85;4.07;;;11.80;90.50;;;;;;4938829;29;20046;-92
2023/04/04 14:29:54;;;;;;;5.85;4.07;;;12.20;90.70;;;;;;4938747;29;20111;-91
2023/04/04 14:32:20;;;;;;;6.45;4.28;;;12.50;91.20;;;;;;4939013;29;20027;-92
2023/04/04 14:34:45;;;;;;;4.57;4.03;;;12.40;90.50;;;;;;4938042;29;20031;-92
2023/04/04 14:37:11;;;;;;;6.97;4.50;;;12.60;91.00;;;;;;4938186;29;20610;-94
2023/04/04 14:39:46;;;;;;;9.45;4.30;;;12.50;91.60;;;;;;4939953;29;20071;-96
2023/04/04 14:42:11;;;;;;;7.88;3.97;;;12.00;91.30;;;;;;4949009;28;20122;-94
2023/04/04 14:44:37;;;;;;;6.15;4.40;;;12.10;90.90;;;;;;4938063;29;20114;-94
2023/04/04 14:47:03;;;;;;;4.75;4.20;;;12.80;90.60;;;;;;4937320;29;20023;-94
2023/04/04 14:49:31;;;;;;;4.20;3.80;;;12.50;91.10;;;;;;4935829;29;20028;-94
2023/04/04 14:51:57;;;;;;;6.78;3.97;;;12.20;91.00;;;;;;4936981;29;20051;-95
2023/04/04 14:54:31;;;;;;;5.75;4.10;;;13.40;91.60;;;;;;4938088;29;20031;-94
2023/04/04 14:56:57;;;;;;;5.55;3.55;;;12.50;91.10;;;;;;4938756;29;20036;-93
2023/04/04 14:59:28;;;;;;;4.65;4.05;;;12.50;91.30;;;;;;4940818;29;20023;-94
2023/04/04 15:01:54;;;;;;;7.40;4.97;;;12.70;91.60;;;;;;4954406;28;20110;-95
2023/04/04 15:04:19;;;;;;;8.88;4.22;;;12.20;91.00;;;;;;4940703;29;20044;-91
2023/04/04 15:07:02;;;;;;;6.47;4.72;;;12.60;91.20;;;;;;4937845;29;20039;-91
2023/04/04 15:09:34;;;;;;;6.00;4.53;;;12.20;91.30;;;;;;4936869;29;20031;-90
2023/04/04 15:12:37;;;;;;;6.47;4.75;;;12.50;91.20;;;;;;4933652;29;20031;-91
2023/04/04 15:15:17;;;;;;;5.32;4.65;;;12.10;90.80;;;;;;4934507;29;20032;-90
2023/04/04 15:18:00;;;;;;;6.65;4.10;;;12.70;91.20;;;;;;4937946;29;20028;-93
2023/04/04 15:20:38;;;;;;;9.35;4.40;;;12.20;90.90;;;;;;4936336;29;20032;-93
2023/04/04 15:23:05;;;;;;;9.15;4.35;;;12.80;91.90;;;;;;4934208;29;20028;-91
2023/04/04 15:25:31;;;;;;;6.38;4.13;;;12.70;91.20;;;;;;4934594;29;20047;-92
2023/04/04 15:28:00;;;;;;;9.60;4.85;;;12.10;90.90;;;;;;4936729;29;20114;-92
2023/04/04 15:30:32;;;;;;;5.63;3.90;;;12.60;91.10;;;;;;4936668;29;20106;-90
2023/04/04 15:32:57;;;;;;;9.50;4.00;;;10.90;90.90;;;;;;4936594;29;20040;-92
2023/04/04 15:35:35;;;;;;;6.22;4.10;;;12.50;91.70;;;;;;4937166;29;20032;-91
2023/04/04 15:38:01;;;;;;;9.32;4.18;;;12.40;92.20;;;;;;4934789;29;20480;-91
2023/04/04 15:40:35;;;;;;;7.38;4.30;;;13.30;92.60;;;;;;4935489;29;20048;-92
2023/04/04 15:43:01;;;;;;;7.97;4.65;;;12.40;92.40;;;;;;4936656;29;20110;-92
2023/04/04 15:45:35;;;;;;;15.80;5.00;;;12.60;92.60;;;;;;4947538;29;20122;-93
2023/04/04 15:48:19;;;;;;;6.72;4.50;;;12.10;93.00;;;;;;4934737;29;20087;-92
2023/04/04 15:50:45;;;;;;;8.38;4.30;;;11.60;92.90;;;;;;4939911;29;20024;-92
2023/04/04 15:53:19;;;;;;;5.57;4.38;;;12.60;93.60;;;;;;4938614;29;20031;-90
2023/04/04 15:55:55;;;;;;;4.93;4.05;;;12.40;94.10;;;;;;4937413;29;20031;-90
2023/04/04 15:58:39;;;;;;;7.95;4.18;;;11.70;94.20;;;;;;4938087;29;20026;-91
2023/04/04 16:01:06;;;;;;;8.32;4.35;;;12.30;94.70;;;;;;4939182;29;20039;-90
2023/04/04 16:03:33;;;;;;;6.88;4.55;;;12.60;94.40;;;;;;4934904;29;20441;-92
2023/04/04 16:05:59;;;;;;;5.63;4.28;;;12.30;94.30;;;;;;4941609;29;20043;-92
2023/04/04 16:08:43;;;;;;;7.45;3.65;;;11.90;94.60;;;;;;4942250;29;20031;-93
2023/04/04 16:11:14;;;;;;;6.80;4.13;;;11.80;95.00;;;;;;4939925;29;20024;-94
2023/04/04 16:13:41;;;;;;;6.88;4.88;;;11.40;94.80;;;;;;4936738;29;20052;-91
2023/04/04 16:16:07;;;;;;;8.20;4.28;;;12.10;95.00;;;;;;4936099;29;20062;-91
2023/04/04 16:18:32;;;;;;;7.47;4.43;;;12.00;94.90;;;;;;4935907;29;20051;-91
2023/04/04 16:21:16;;;;;;;10.43;5.30;;;12.20;94.90;;;;;;4935881;29;20035;-92
2023/04/04 16:23:57;;;;;;;7.90;4.70;;;10.90;94.60;;;;;;4948804;29;20035;-91
2023/04/04 16:26:23;;;;;;;;;;;12.90;95.10;;;;;;4937178;29;20036;-90
2023/04/04 16:28:48;;;;;;;6.03;4.15;;;11.60;94.80;;;;;;4936293;29;20252;-91
2023/04/04 16:31:23;;;;;;;8.13;4.85;;;11.70;95.00;;;;;;4935985;29;20049;-90
2023/04/04 16:34:07;;;;;;;5.38;3.88;;;11.80;95.10;;;;;;4945744;29;20092;-90
2023/04/04 16:36:33;;;;;;;7.97;4.50;;;12.10;94.60;;;;;;4936176;29;20051;-89
2023/04/04 16:39:07;;;;;;;6.90;4.30;;;11.50;94.50;;;;;;4935469;29;20488;-90